Time;durP1;ratioP1;P1;durP2;ratioP2;P2;SDS_P1;SDS_P2;PMS_P1;PMS_P2;Temp;Humidity;BMP_temperature;BMP_pressure;BME280_temperature;BME280_humidity;BME280_pressure;Samples;Min_cycle;Max_cycle;Signal;HPM_P1;HPM_P2
2023/08/31 00:01:57;;;;;;;2.80;2.60;;;;;;;10.44;100.00;95240.72;7435762;19;20397;-96
2023/08/31 00:04:27;;;;;;;3.37;2.57;;;;;;;9.98;100.00;95171.97;7434974;19;20393;-96
2023/08/31 00:06:56;;;;;;;3.73;2.80;;;;;;;9.78;100.00;95152.75;7436612;19;20392;-96
2023/08/31 00:09:32;;;;;;;2.40;2.20;;;;;;;9.72;100.00;95141.72;7435477;19;20388;-96
2023/08/31 00:12:02;;;;;;;3.67;3.37;;;;;;;9.73;100.00;95168.88;7437541;19;20385;-96
2023/08/31 00:14:30;;;;;;;3.83;3.47;;;;;;;9.61;100.00;95148.66;7435257;19;20393;-96
2023/08/31 00:17:00;;;;;;;3.40;3.10;;;;;;;9.80;100.00;95163.72;7437513;19;20389;-96
2023/08/31 00:19:27;;;;;;;2.80;2.60;;;;;;;10.53;100.00;95279.00;7432758;19;20408;-96
2023/08/31 00:21:54;;;;;;;3.27;3.03;;;;;;;11.26;100.00;95385.66;7436888;19;20384;-96
2023/08/31 00:24:28;;;;;;;3.53;3.20;;;;;;;10.62;100.00;95284.06;7435809;19;20389;-96
2023/08/31 00:26:55;;;;;;;2.90;2.60;;;;;;;10.53;100.00;95281.66;7437623;19;20389;-96
2023/08/31 00:29:25;;;;;;;2.80;2.60;;;;;;;9.62;100.00;95139.66;7433427;19;20416;-96
2023/08/31 00:31:53;;;;;;;3.57;3.27;;;;;;;10.05;100.00;95209.06;7438311;19;20385;-96
2023/08/31 00:34:21;;;;;;;3.93;2.73;;;;;;;9.86;100.00;95195.88;7435743;19;20408;-96
2023/08/31 00:36:52;;;;;;;2.60;2.40;;;;;;;10.29;100.00;95251.06;7434072;19;20437;-96
2023/08/31 00:39:20;;;;;;;3.40;3.20;;;;;;;10.28;100.00;95261.94;7433294;19;20436;-96
2023/08/31 00:41:47;;;;;;;3.77;2.53;;;;;;;10.44;100.00;95299.63;7435670;19;20400;-96
2023/08/31 00:44:15;;;;;;;2.80;2.30;;;;;;;10.35;100.00;95293.78;7432653;19;20396;-96
2023/08/31 00:46:47;;;;;;;2.80;1.90;;;;;;;10.14;100.00;95280.13;7432534;19;20386;-96
2023/08/31 00:49:15;;;;;;;2.33;2.00;;;;;;;9.73;100.00;95232.22;7434039;19;20439;-96
2023/08/31 00:51:49;;;;;;;4.67;2.30;;;;;;;9.43;100.00;95179.97;7434299;19;20396;-96
2023/08/31 00:54:20;;;;;;;3.30;2.40;;;;;;;10.86;100.00;95396.69;7430582;19;20385;-96
2023/08/31 00:57:00;;;;;;;3.23;2.13;;;;;;;10.23;100.00;95286.00;7431861;19;20369;-96
2023/08/31 00:59:28;;;;;;;2.87;2.57;;;;;;;10.23;100.00;95299.22;7429326;19;20415;-96
2023/08/31 01:02:21;;;;;;;3.00;2.80;;;;;;;9.85;100.00;95261.09;7431741;19;20377;-96
2023/08/31 01:05:08;;;;;;;2.70;2.10;;;;;;;10.13;100.00;95283.91;7434143;19;20396;-96
2023/08/31 01:07:38;;;;;;;2.77;2.40;;;;;;;10.89;100.00;95399.38;7428282;19;20472;-96
2023/08/31 01:10:40;;;;;;;2.73;2.53;;;;;;;9.28;100.00;95167.63;7437666;19;20360;-96
2023/08/31 01:13:15;;;;;;;2.63;2.43;;;;;;;9.30;100.00;95160.13;7434614;19;20376;-96
2023/08/31 01:15:46;;;;;;;2.73;2.53;;;;;;;9.45;100.00;95169.84;7431522;19;20372;-96
2023/08/31 01:18:18;;;;;;;2.20;2.00;;;;;;;9.40;100.00;95158.81;7430789;19;20405;-96
2023/08/31 01:20:55;;;;;;;2.67;2.27;;;;;;;9.41;100.00;95163.75;7431387;19;20383;-96
2023/08/31 01:23:33;;;;;;;2.03;1.93;;;;;;;10.93;100.00;95394.91;7430673;19;20372;-96
2023/08/31 01:26:01;;;;;;;2.73;2.53;;;;;;;9.56;100.00;95198.31;7431228;19;20377;-96
2023/08/31 01:28:32;;;;;;;3.77;2.10;;;;;;;9.75;100.00;95240.56;7434376;19;20417;-96
2023/08/31 01:31:33;;;;;;;3.60;2.40;;;;;;;10.76;100.00;95391.94;7430629;19;20377;-96
2023/08/31 02:11:35;;;;;;;2.47;2.27;;;;;;;8.97;100.00;95205.38;7437121;19;20395;-96
2023/08/31 02:14:49;;;;;;;3.77;2.50;;;;;;;10.33;100.00;95399.06;7433708;19;20392;-96
2023/08/31 02:31:59;;;;;;;2.87;2.67;;;;;;;9.27;100.00;95221.47;7435727;19;20394;-96
2023/08/31 02:34:26;;;;;;;5.13;2.87;;;;;;;9.86;100.00;95309.38;7433926;19;20422;-96
2023/08/31 02:37:00;;;;;;;3.17;2.80;;;;;;;9.28;100.00;95227.53;7434011;19;20384;-96
2023/08/31 02:39:27;;;;;;;2.73;2.50;;;;;;;10.11;100.00;95338.94;7431288;19;20431;-96
2023/08/31 02:41:55;;;;;;;2.67;2.27;;;;;;;10.61;100.00;95431.34;7435493;19;20385;-96
2023/08/31 02:44:23;;;;;;;3.20;2.47;;;;;;;9.28;100.00;95246.75;7431294;19;20403;-96
2023/08/31 02:46:52;;;;;;;3.03;2.60;;;;;;;9.23;100.00;95209.34;7434311;19;20432;-96
2023/08/31 02:49:19;;;;;;;3.67;2.97;;;;;;;9.45;100.00;95216.56;7432892;19;20444;-96
2023/08/31 02:51:49;;;;;;;3.13;2.83;;;;;;;10.64;100.00;95430.63;7433028;19;20416;-96
2023/08/31 02:54:16;;;;;;;3.60;3.30;;;;;;;9.31;100.00;95285.63;7434022;19;20397;-96
2023/08/31 02:57:11;;;;;;;9.30;2.87;;;;;;;9.76;100.00;95352.94;7433541;19;20416;-96
2023/08/31 03:00:29;;;;;;;8.00;2.87;;;;;;;10.19;100.00;95441.75;7434481;19;20380;-96
2023/08/31 03:04:07;;;;;;;2.60;2.40;;;;;;;8.73;100.00;95205.59;7433338;19;20410;-96
2023/08/31 03:10:53;;;;;;;4.03;2.90;;;;;;;9.07;100.00;95251.53;7433640;19;20393;-96
2023/08/31 03:13:50;;;;;;;3.03;2.50;;;;;;;9.38;100.00;95312.16;7434442;19;20397;-96
2023/08/31 03:16:38;;;;;;;3.40;3.10;;;;;;;9.30;100.00;95322.88;7427822;19;20408;-96
2023/08/31 03:19:45;;;;;;;4.93;2.60;;;;;;;8.92;100.00;95253.09;7434698;19;20421;-96
2023/08/31 03:23:06;;;;;;;2.43;2.23;;;;;;;10.25;100.00;95429.06;7438453;19;20388;-96
2023/08/31 03:26:26;;;;;;;3.67;2.67;;;;;;;9.12;100.00;95262.59;7437513;19;20393;-96
2023/08/31 03:29:07;;;;;;;2.63;2.10;;;;;;;9.59;100.00;95340.88;7435688;19;20436;-96
2023/08/31 03:31:44;;;;;;;3.77;2.30;;;;;;;9.77;100.00;95351.84;7439277;19;20388;-96
2023/08/31 03:34:11;;;;;;;3.30;2.97;;;;;;;8.99;100.00;95234.81;7437496;19;20395;-96
2023/08/31 03:36:40;;;;;;;2.57;2.37;;;;;;;8.99;100.00;95224.25;7436431;19;20400;-96
2023/08/31 03:39:09;;;;;;;2.87;2.60;;;;;;;9.51;100.00;95309.41;7435302;19;20432;-96
2023/08/31 03:41:36;;;;;;;3.20;2.90;;;;;;;9.74;100.00;95358.53;7436282;19;20381;-96
2023/08/31 03:44:07;;;;;;;2.57;2.37;;;;;;;9.63;100.00;95339.09;7432775;19;20365;-96
2023/08/31 03:46:34;;;;;;;3.20;2.90;;;;;;;9.14;100.00;95276.19;7436093;19;20424;-96
2023/08/31 03:49:02;;;;;;;3.07;2.40;;;;;;;8.56;100.00;95244.34;7435406;19;20432;-94
2023/08/31 03:51:32;;;;;;;3.87;3.47;;;;;;;9.89;100.00;95449.41;7436138;19;20384;-95
2023/08/31 03:54:01;;;;;;;3.43;3.00;;;;;;;9.28;100.00;95357.50;7437333;19;20403;-94
2023/08/31 03:56:28;;;;;;;10.67;3.00;;;;;;;9.02;100.00;95296.63;7436084;19;20421;-94
2023/08/31 03:58:55;;;;;;;2.70;2.50;;;;;;;9.45;100.00;95351.88;7435445;19;20456;-94
2023/08/31 04:01:23;;;;;;;10.83;3.00;;;;;;;9.65;100.00;95371.19;7436063;19;20408;-95
2023/08/31 04:03:50;;;;;;;6.23;3.20;;;;;;;9.28;100.00;95317.19;7435937;19;20442;-95
2023/08/31 04:06:18;;;;;;;3.57;2.70;;;;;;;9.78;100.00;95385.81;7435931;19;20411;-94
2023/08/31 04:08:45;;;;;;;4.30;3.07;;;;;;;9.68;100.00;95388.19;7435365;19;20447;-94
2023/08/31 04:11:13;;;;;;;3.77;2.73;;;;;;;9.46;100.00;95390.34;7435639;19;20420;-94
2023/08/31 04:13:40;;;;;;;3.27;2.67;;;;;;;9.00;100.00;95331.25;7437480;19;20389;-95
2023/08/31 04:16:07;;;;;;;4.50;3.07;;;;;;;9.28;100.00;95388.41;7435586;19;20428;-94
2023/08/31 04:18:41;;;;;;;3.53;2.80;;;;;;;9.30;100.00;95386.19;7435742;19;20453;-94
2023/08/31 04:21:08;;;;;;;4.03;2.97;;;;;;;9.63;100.00;95442.03;7435015;19;20392;-95
2023/08/31 04:23:36;;;;;;;3.63;3.33;;;;;;;9.64;100.00;95390.00;7435518;19;20377;-94
2023/08/31 04:26:13;;;;;;;4.63;3.00;;;;;;;9.42;100.00;95355.22;7434927;19;20419;-94
2023/08/31 04:28:43;;;;;;;3.47;3.10;;;;;;;10.36;100.00;95488.19;7433960;19;20841;-95
2023/08/31 04:31:11;;;;;;;4.47;4.07;;;;;;;8.78;100.00;95256.16;7434369;19;20400;-94
2023/08/31 04:33:40;;;;;;;6.00;3.23;;;;;;;9.75;100.00;95375.19;7436623;19;20385;-94
2023/08/31 04:36:15;;;;;;;3.43;3.13;;;;;;;9.04;100.00;95286.50;7435349;19;20384;-94
2023/08/31 04:38:46;;;;;;;2.90;2.70;;;;;;;9.64;100.00;95379.44;7435350;19;20432;-95
2023/08/31 04:41:27;;;;;;;4.53;3.10;;;;;;;10.23;100.00;95494.69;7435849;19;20670;-95
2023/08/31 04:43:59;;;;;;;3.10;2.80;;;;;;;9.41;100.00;95401.16;7431038;19;20365;-95
2023/08/31 04:46:41;;;;;;;3.27;2.90;;;;;;;9.51;100.00;95425.50;7436391;19;20440;-95
2023/08/31 04:49:08;;;;;;;3.30;3.00;;;;;;;10.22;100.00;95516.94;7432798;19;20480;-94
2023/08/31 04:51:39;;;;;;;3.60;3.30;;;;;;;9.98;100.00;95465.81;7436777;19;20385;-94
2023/08/31 04:54:07;;;;;;;4.33;3.57;;;;;;;10.60;100.00;95518.91;7434851;19;20425;-94
2023/08/31 04:56:34;;;;;;;4.27;3.30;;;;;;;10.22;100.00;95461.47;7436609;19;20420;-95
2023/08/31 04:59:26;;;;;;;3.87;3.60;;;;;;;9.81;100.00;95405.47;7432872;19;20425;-94
2023/08/31 05:02:28;;;;;;;4.70;4.00;;;;;;;9.74;100.00;95389.47;7433993;19;20385;-95
2023/08/31 05:05:32;;;;;;;3.90;3.47;;;;;;;10.18;100.00;95445.53;7429149;19;20420;-94
2023/08/31 05:08:28;;;;;;;7.40;3.23;;;;;;;10.19;100.00;95451.56;7431897;19;20433;-95
2023/08/31 05:11:28;;;;;;;4.70;3.37;;;;;;;10.10;100.00;95474.75;7436027;19;20407;-95
2023/08/31 05:14:37;;;;;;;3.53;3.00;;;;;;;9.67;100.00;95426.25;7435501;19;20385;-95
2023/08/31 05:17:17;;;;;;;4.50;3.60;;;;;;;9.81;100.00;95465.41;7434239;19;20403;-94
2023/08/31 05:20:24;;;;;;;3.43;3.13;;;;;;;10.51;100.00;95568.53;7433689;19;20384;-96
2023/08/31 05:23:19;;;;;;;3.33;3.03;;;;;;;9.97;100.00;95482.00;7431508;19;20393;-94
2023/08/31 05:26:15;;;;;;;4.13;3.83;;;;;;;9.18;100.00;95360.66;7434311;19;20392;-94
2023/08/31 05:29:21;;;;;;;5.27;3.70;;;;;;;9.45;100.00;95386.19;7432911;19;20472;-94
2023/08/31 05:32:14;;;;;;;3.97;3.40;;;;;;;10.07;100.00;95447.91;7432410;19;20377;-93
2023/08/31 05:34:48;;;;;;;3.97;3.57;;;;;;;10.23;100.00;95482.25;7434920;19;20389;-93
2023/08/31 05:37:15;;;;;;;3.93;3.60;;;;;;;10.08;100.00;95430.97;7432883;19;20393;-94
2023/08/31 05:39:47;;;;;;;3.73;3.40;;;;;;;10.78;100.00;95520.03;7434964;19;20378;-94
2023/08/31 05:42:14;;;;;;;4.60;3.37;;;;;;;11.24;100.00;95588.97;7432968;19;20407;-95
2023/08/31 05:44:41;;;;;;;4.23;3.60;;;;;;;10.80;100.00;95496.66;7430427;19;20393;-93
2023/08/31 05:47:08;;;;;;;3.70;3.13;;;;;;;10.32;100.00;95442.44;7433285;19;20397;-94
2023/08/31 05:49:36;;;;;;;3.90;3.60;;;;;;;10.26;100.00;95441.16;7431839;19;20395;-95
2023/08/31 05:52:03;;;;;;;7.80;3.10;;;;;;;10.02;100.00;95405.94;7433753;19;20392;-94
2023/08/31 05:54:31;;;;;;;3.57;3.27;;;;;;;10.92;100.00;95552.06;7431348;19;20389;-95
2023/08/31 05:56:58;;;;;;;4.43;3.53;;;;;;;10.59;100.00;95494.34;7433126;19;20428;-95
2023/08/31 05:59:25;;;;;;;3.63;3.33;;;;;;;10.73;100.00;95519.56;7429740;19;20416;-95
2023/08/31 06:01:52;;;;;;;4.40;4.00;;;;;;;10.84;100.00;95512.59;7430655;19;20394;-93
2023/08/31 06:04:22;;;;;;;3.60;3.30;;;;;;;10.49;100.00;95452.59;7430668;19;20439;-94
2023/08/31 06:06:51;;;;;;;4.87;3.90;;;;;;;11.04;100.00;95522.06;7433024;19;20384;-95
2023/08/31 06:09:20;;;;;;;5.03;4.00;;;;;;;10.95;100.00;95526.78;7429704;19;20440;-94
2023/08/31 06:11:47;;;;;;;6.63;3.63;;;;;;;11.02;100.00;95587.78;7433786;19;20393;-94
2023/08/31 06:14:14;;;;;;;5.13;4.63;;;;;;;11.03;100.00;95620.28;7431399;19;20393;-94
2023/08/31 06:16:41;;;;;;;4.17;3.30;;;;;;;10.25;100.00;95513.59;7432792;19;20393;-95
2023/08/31 06:19:08;;;;;;;4.63;4.10;;;;;;;10.07;100.00;95502.63;7429898;19;20428;-94
2023/08/31 06:21:35;;;;;;;5.47;4.97;;;;;;;10.44;100.00;95579.72;7432832;19;20403;-94
2023/08/31 06:24:05;;;;;;;6.30;4.23;;;;;;;10.06;100.00;95522.22;7430683;19;20385;-95
2023/08/31 06:26:33;;;;;;;6.40;4.53;;;;;;;10.18;100.00;95524.00;7432670;19;20409;-94
2023/08/31 06:29:00;;;;;;;5.90;4.97;;;;;;;10.93;100.00;95625.00;7431722;19;20436;-94
2023/08/31 06:31:27;;;;;;;10.03;4.93;;;;;;;9.78;100.00;95414.06;7429533;19;20400;-96
2023/08/31 06:33:55;;;;;;;7.87;4.50;;;;;;;10.26;100.00;95470.22;7431037;19;20380;-96
2023/08/31 06:36:25;;;;;;;8.60;4.17;;;;;;;10.46;100.00;95529.94;7433340;19;20425;-95
2023/08/31 06:38:52;;;;;;;6.40;4.30;;;;;;;10.40;100.00;95502.22;7427223;19;20424;-95
2023/08/31 06:41:19;;;;;;;7.97;4.67;;;;;;;10.98;100.00;95536.69;7429683;19;20400;-95
2023/08/31 06:43:46;;;;;;;5.30;4.40;;;;;;;11.36;100.00;95607.38;7430749;19;20385;-96
2023/08/31 06:46:14;;;;;;;6.40;3.77;;;;;;;11.48;100.00;95620.44;7432653;19;20385;-95
2023/08/31 06:48:50;;;;;;;4.43;4.03;;;;;;;10.01;100.00;95438.72;7426828;19;20431;-94
2023/08/31 06:51:18;;;;;;;4.60;4.20;;;;;;;10.65;100.00;95560.91;7429799;19;20389;-95
2023/08/31 06:53:47;;;;;;;6.33;5.13;;;;;;;10.95;100.00;95617.50;7429850;19;20401;-96
2023/08/31 06:56:15;;;;;;;8.50;6.50;;;;;;;11.12;100.00;95615.56;7429694;19;20462;-95
2023/08/31 06:58:43;;;;;;;7.77;5.70;;;;;;;11.33;100.00;95607.28;7430589;19;20468;-95
2023/08/31 07:01:13;;;;;;;6.83;4.60;;;;;;;11.35;100.00;95631.50;7429698;19;20392;-96
2023/08/31 07:03:40;;;;;;;5.47;4.97;;;;;;;10.33;100.00;95451.91;7431200;19;20389;-95
2023/08/31 07:06:07;;;;;;;7.40;4.63;;;;;;;10.91;100.00;95539.19;7429898;19;20391;-95
2023/08/31 07:08:37;;;;;;;7.30;4.70;;;;;;;10.22;100.00;95454.31;7430529;19;20448;-94
2023/08/31 07:11:04;;;;;;;7.90;4.80;;;;;;;11.59;100.00;95667.53;7429799;19;20397;-93
2023/08/31 07:13:31;;;;;;;8.70;5.00;;;;;;;10.91;100.00;95571.69;7431290;19;20377;-92
2023/08/31 07:15:58;;;;;;;6.27;5.57;;;;;;;10.49;100.00;95508.09;7429758;19;20396;-93
2023/08/31 07:18:52;;;;;;;6.43;5.73;;;;;;;10.42;100.00;95470.22;7429593;19;20416;-92
2023/08/31 07:21:41;;;;;;;8.10;5.67;;;;;;;11.16;100.00;95571.44;7432137;19;20368;-93
2023/08/31 07:24:28;;;;;;;13.37;6.30;;;;;;;11.34;100.00;95588.41;7429070;19;20428;-94
2023/08/31 07:27:12;;;;;;;9.83;5.97;;;;;;;11.02;100.00;95557.91;7429011;19;20397;-93
2023/08/31 07:30:20;;;;;;;5.80;5.30;;;;;;;12.03;100.00;95687.38;7428578;19;20432;-95
2023/08/31 07:33:35;;;;;;;7.53;5.53;;;;;;;11.90;100.00;95597.81;7430407;19;20424;-94
2023/08/31 07:36:39;;;;;;;5.80;4.03;;;;;;;11.17;100.00;95494.34;7430954;19;20388;-95
2023/08/31 07:42:58;;;;;;;6.27;4.93;;;;;;;11.07;100.00;95480.91;7430413;19;20427;-95
2023/08/31 07:46:06;;;;;;;5.47;5.07;;;;;;;12.00;100.00;95636.94;7428392;19;20377;-95
2023/08/31 07:48:50;;;;;;;4.73;3.73;;;;;;;12.21;100.00;95628.59;7425060;19;20416;-96
2023/08/31 07:51:35;;;;;;;4.67;4.20;;;;;;;11.46;100.00;95537.97;7428471;19;20389;-94
2023/08/31 07:54:05;;;;;;;11.63;5.60;;;;;;;11.34;100.00;95509.00;7427025;19;20432;-95
2023/08/31 07:56:33;;;;;;;7.17;5.60;;;;;;;12.26;100.00;95591.94;7428786;19;20381;-95
2023/08/31 07:59:00;;;;;;;4.57;4.13;;;;;;;12.94;100.00;95638.81;7428517;19;20485;-95
2023/08/31 08:01:31;;;;;;;4.17;3.70;;;;;;;12.36;100.00;95630.38;7426595;19;20416;-96
2023/08/31 08:04:07;;;;;;;4.40;4.00;;;;;;;12.02;100.00;95601.06;7429984;19;20381;-95
2023/08/31 08:06:53;;;;;;;3.97;3.57;;;;;;;11.47;100.00;95518.31;7433465;19;20402;-96
2023/08/31 08:09:22;;;;;;;5.63;4.57;;;;;;;12.00;100.00;95597.19;7432924;19;20468;-96
2023/08/31 08:30:07;;;;;;;3.80;3.27;;;;;;;11.55;100.00;95543.06;7419598;19;20483;-95
2023/08/31 08:38:29;;;;;;;3.83;2.90;;;;;;;11.91;100.00;95563.00;7355738;19;20428;-95
2023/08/31 08:40:56;;;;;;;4.30;3.90;;;;;;;12.51;100.00;95669.25;7436423;19;20437;-96
2023/08/31 08:43:29;;;;;;;3.40;3.10;;;;;;;12.63;100.00;95671.72;7434322;19;20457;-95
2023/08/31 08:46:04;;;;;;;4.43;3.37;;;;;;;12.54;100.00;95641.25;7431281;19;20405;-92
2023/08/31 08:48:37;;;;;;;2.83;2.63;;;;;;;11.80;100.00;95559.41;7433683;19;20456;-93
2023/08/31 08:51:06;;;;;;;3.70;2.80;;;;;;;12.55;100.00;95675.34;7436036;19;20412;-94
2023/08/31 08:53:35;;;;;;;3.33;3.03;;;;;;;12.40;100.00;95673.59;7434582;19;20410;-94
2023/08/31 08:56:09;;;;;;;5.77;3.23;;;;;;;12.98;100.00;95766.25;7435090;19;20396;-93
2023/08/31 08:58:40;;;;;;;3.93;2.57;;;;;;;12.90;100.00;95743.38;7433435;19;20523;-94
2023/08/31 09:01:23;;;;;;;2.90;2.40;;;;;;;12.79;100.00;95690.13;7433284;19;20425;-93
2023/08/31 09:03:51;;;;;;;4.07;2.43;;;;;;;12.26;100.00;95644.97;7431928;19;20373;-94
2023/08/31 09:06:20;;;;;;;5.47;3.90;;;;;;;12.13;100.00;95641.72;7431841;19;20453;-92
2023/08/31 09:08:57;;;;;;;3.13;2.83;;;;;;;12.61;100.00;95678.50;7433339;19;20435;-94
2023/08/31 09:11:26;;;;;;;4.90;2.80;;;;;;;12.76;100.00;95669.63;7434209;19;20392;-93
2023/08/31 09:14:17;;;;;;;5.97;2.80;;;;;;;13.05;100.00;95646.94;7433058;19;20412;-95
2023/08/31 09:16:48;;;;;;;2.50;2.27;;;;;;;14.15;100.00;95740.53;7433308;19;20400;-94
2023/08/31 09:19:24;;;;;;;4.87;3.20;;;;;;;13.53;100.00;95677.19;7431359;19;20432;-94
2023/08/31 09:21:58;;;;;;;6.60;3.07;;;;;;;12.76;100.00;95566.19;7435463;19;20424;-95
2023/08/31 09:24:40;;;;;;;5.50;2.90;;;;;;;12.67;100.00;95573.63;7434076;19;20381;-93
2023/08/31 09:27:14;;;;;;;4.10;2.43;;;;;;;13.23;100.00;95689.69;7432681;19;20385;-93
2023/08/31 09:29:45;;;;;;;2.97;2.67;;;;;;;13.13;100.00;95653.13;7433800;19;20396;-93
2023/08/31 09:32:21;;;;;;;5.20;2.73;;;;;;;13.66;100.00;95687.59;7433518;19;20392;-94
2023/08/31 09:35:07;;;;;;;4.07;2.70;;;;;;;13.41;100.00;95648.19;7433636;19;20425;-94
2023/08/31 09:38:01;;;;;;;6.50;2.40;;;;;;;14.08;100.00;95745.78;7431428;19;20464;-95
2023/08/31 09:40:48;;;;;;;2.67;2.40;;;;;;;13.40;100.00;95629.97;7432764;19;20403;-93
2023/08/31 09:43:25;;;;;;;6.27;2.27;;;;;;;13.30;100.00;95660.56;7429829;19;20388;-93
2023/08/31 09:46:06;;;;;;;5.37;3.10;;;;;;;13.18;100.00;95680.13;7433233;19;20380;-94
2023/08/31 09:48:42;;;;;;;4.03;2.60;;;;;;;13.24;100.00;95657.47;7431671;19;20432;-93
2023/08/31 09:51:32;;;;;;;4.53;2.83;;;;;;;13.95;100.00;95782.47;7431686;19;20397;-93
2023/08/31 10:12:43;;;;;;;4.10;3.70;;;;;;;13.13;100.00;95717.56;7430352;19;20444;-93
2023/08/31 10:15:15;;;;;;;4.00;3.60;;;;;;;13.11;100.00;95671.28;7428655;19;20392;-94
2023/08/31 10:17:43;;;;;;;3.57;2.80;;;;;;;12.89;100.00;95659.59;7427924;19;20403;-95
2023/08/31 10:20:14;;;;;;;3.30;2.13;;;;;;;12.40;100.00;95581.56;7429480;19;20389;-93
2023/08/31 10:22:41;;;;;;;3.03;2.83;;;;;;;13.21;100.00;95690.03;7427966;19;20392;-94
2023/08/31 10:25:11;;;;;;;6.87;6.17;;;;;;;12.46;100.00;95581.28;7428415;19;20419;-94
2023/08/31 10:27:46;;;;;;;2.50;2.30;;;;;;;12.68;100.00;95591.81;7425717;19;20428;-95
2023/08/31 10:30:27;;;;;;;3.93;2.90;;;;;;;13.75;100.00;95787.13;7429070;19;20417;-93
2023/08/31 10:33:16;;;;;;;2.87;2.50;;;;;;;13.96;100.00;95788.53;7426872;19;20403;-94
2023/08/31 11:54:49;;;;;;;2.80;2.60;;;;;;;14.28;100.00;95709.13;7433524;19;20360;-96
2023/08/31 12:05:12;;;;;;;6.33;2.83;;;;;;;13.41;100.00;95661.47;7430144;19;20390;-96
2023/08/31 12:08:38;;;;;;;3.73;1.73;;;;;;;14.54;100.00;95828.75;7431685;19;20408;-94
2023/08/31 12:11:32;;;;;;;4.50;2.70;;;;;;;13.45;100.00;95651.66;7435899;19;20401;-96
2023/08/31 12:14:46;;;;;;;2.63;2.43;;;;;;;13.93;100.00;95691.69;7431918;19;20386;-95
2023/08/31 12:20:22;;;;;;;5.93;3.23;;;;;;;14.25;100.00;95728.47;7435074;19;20406;-94
2023/08/31 12:23:46;;;;;;;3.37;3.07;;;;;;;14.00;100.00;95726.31;7430002;19;20376;-95
2023/08/31 12:26:31;;;;;;;2.53;2.33;;;;;;;13.80;100.00;95642.56;7431269;19;20409;-95
2023/08/31 12:29:41;;;;;;;;;;;;;;;;;;;;;
2023/08/31 12:32:51;;;;;;;;;;;;;;;;;;;;;
2023/08/31 12:39:32;;;;;;;2.87;2.07;;;;;;;15.42;97.45;95648.81;7406870;19;20444;-95
2023/08/31 12:43:09;;;;;;;2.43;2.23;;;;;;;14.93;94.88;95652.69;7432100;19;20393;-94
2023/08/31 12:56:03;;;;;;;4.03;2.77;;;;;;;14.41;93.39;95651.88;7400649;19;20436;-95
2023/08/31 12:59:09;;;;;;;3.03;2.13;;;;;;;14.84;92.65;95740.09;7429887;19;20456;-95
2023/08/31 13:02:06;;;;;;;3.83;2.40;;;;;;;14.40;92.26;95632.50;7432734;19;20408;-94
2023/08/31 13:05:00;;;;;;;4.93;2.67;;;;;;;16.74;89.74;95839.47;7427810;19;20384;-94
2023/08/31 13:07:49;;;;;;;4.07;2.63;;;;;;;16.15;86.93;95745.44;7426562;19;20404;-95
2023/08/31 13:14:38;;;;;;;2.40;2.20;;;;;;;16.43;84.77;95840.88;7426560;19;20384;-94
2023/08/31 13:17:36;;;;;;;5.30;2.97;;;;;;;16.04;84.36;95758.00;7425839;19;20420;-94
2023/08/31 13:20:19;;;;;;;2.73;2.33;;;;;;;15.27;87.79;95757.16;7426533;19;20397;-94
2023/08/31 13:23:12;;;;;;;3.30;3.00;;;;;;;14.96;90.34;95654.66;7426449;19;20433;-94
2023/08/31 13:48:01;;;;;;;2.23;1.80;;;;;;;15.70;89.79;95741.47;7297861;19;21576;-92
2023/08/31 13:51:07;;;;;;;3.77;2.73;;;;;;;15.68;89.95;95733.09;7422879;19;20431;-93
2023/08/31 15:53:27;;;;;;;;;;;;;;;;;;;;;
2023/08/31 16:31:44;;;;;;;;;;;;;;;;;;;;;
2023/08/31 17:54:16;;;;;;;3.13;2.20;;;;;;;12.97;100.00;95707.13;7415653;19;20456;-95
2023/08/31 17:57:49;;;;;;;4.57;2.60;;;;;;;11.54;100.00;95560.06;7431695;19;20368;-95
2023/08/31 18:00:59;;;;;;;3.00;2.07;;;;;;;11.01;100.00;95504.25;7435278;19;20373;-95
2023/08/31 18:04:04;;;;;;;5.30;2.30;;;;;;;13.28;100.00;95864.59;7434128;19;20363;-95
2023/08/31 19:23:11;;;;;;;2.80;2.40;;;;;;;10.02;100.00;95587.41;7431975;19;20432;-95
2023/08/31 19:34:58;;;;;;;3.63;3.33;;;;;;;10.74;100.00;95682.34;7376472;19;20429;-95
2023/08/31 20:11:44;;;;;;;5.20;2.90;;;;;;;11.75;100.00;95923.28;7407894;19;20447;-95
2023/08/31 20:38:38;;;;;;;7.50;3.40;;;;;;;9.81;100.00;95637.78;7435135;19;20400;-96
2023/08/31 20:41:40;;;;;;;4.20;3.30;;;;;;;9.40;100.00;95618.59;7438080;19;20388;-96
2023/08/31 20:45:11;;;;;;;4.80;3.03;;;;;;;9.28;100.00;95639.75;7433253;19;20428;-95
2023/08/31 20:48:27;;;;;;;7.73;2.90;;;;;;;11.26;100.00;95944.00;7438633;19;20365;-95
2023/08/31 20:51:32;;;;;;;4.23;3.13;;;;;;;9.31;100.00;95639.06;7433396;19;20352;-95
2023/08/31 20:54:25;;;;;;;9.30;3.40;;;;;;;9.33;100.00;95642.13;7436436;19;20401;-95
2023/08/31 20:57:44;;;;;;;11.93;4.73;;;;;;;9.54;100.00;95635.91;7436603;19;20432;-96
2023/08/31 21:00:39;;;;;;;6.10;4.10;;;;;;;9.46;100.00;95648.91;7433345;19;20352;-96
2023/08/31 21:04:05;;;;;;;7.10;3.53;;;;;;;11.66;100.00;95957.09;7436152;19;20444;-96
2023/08/31 21:07:05;;;;;;;6.33;3.53;;;;;;;9.45;100.00;95639.44;7435119;19;20396;-96
2023/08/31 21:10:16;;;;;;;6.50;3.33;;;;;;;9.46;100.00;95630.44;7432939;19;20375;-96
2023/08/31 21:16:41;;;;;;;4.10;3.10;;;;;;;9.58;100.00;95647.31;7433315;19;20393;-95
2023/08/31 21:19:38;;;;;;;4.47;2.90;;;;;;;9.52;100.00;95646.03;7435631;19;20377;-96
2023/08/31 21:22:25;;;;;;;4.17;2.83;;;;;;;9.25;100.00;95631.72;7431788;19;20356;-95
2023/08/31 21:25:38;;;;;;;4.20;2.70;;;;;;;9.66;100.00;95721.09;7433917;19;20423;-96
